createdAt,value
2023-03-13T00:02:52.454Z,16.81
2023-03-13T00:05:58.106Z,16.81
2023-03-13T00:09:02.715Z,16.80
2023-03-13T00:12:04.588Z,16.79
2023-03-13T00:15:06.595Z,16.78
2023-03-13T00:18:08.107Z,16.76
2023-03-13T00:21:10.142Z,16.73
2023-03-13T00:24:12.303Z,16.73
2023-03-13T00:27:13.814Z,16.70
2023-03-13T00:30:16.528Z,16.70
2023-03-13T00:33:18.009Z,16.69
2023-03-13T00:36:25.632Z,16.69
2023-03-13T00:39:27.131Z,16.66
2023-03-13T00:42:28.626Z,16.67
2023-03-13T00:45:30.118Z,16.65
2023-03-13T00:48:33.071Z,16.65
2023-03-13T00:51:34.766Z,16.64
2023-03-13T00:54:36.327Z,16.63
2023-03-13T00:57:38.432Z,16.64
2023-03-13T01:00:39.941Z,16.64
2023-03-13T01:03:43.092Z,16.65
2023-03-13T01:06:44.603Z,16.65
2023-03-13T01:09:46.075Z,16.65
2023-03-13T01:12:47.506Z,16.66
2023-03-13T01:15:49.036Z,16.65
2023-03-13T01:18:53.586Z,16.66
2023-03-13T01:21:55.177Z,16.65
2023-03-13T01:24:56.766Z,16.66
2023-03-13T01:27:58.218Z,16.66
2023-03-13T01:31:00.446Z,16.66
2023-03-13T01:34:04.838Z,16.66
2023-03-13T01:37:06.386Z,16.66
2023-03-13T01:40:08.457Z,16.66
2023-03-13T01:43:28.084Z,16.66
2023-03-13T01:46:32.624Z,16.65
2023-03-13T01:49:37.243Z,16.64
2023-03-13T01:52:45.943Z,16.63
2023-03-13T01:55:55.526Z,16.63
2023-03-13T01:58:59.256Z,16.61
2023-03-13T02:02:04.415Z,16.61
2023-03-13T02:05:07.102Z,16.60
2023-03-13T02:08:23.600Z,16.59
2023-03-13T02:11:28.066Z,16.57
2023-03-13T02:14:33.439Z,16.58
2023-03-13T02:17:37.039Z,16.56
2023-03-13T02:20:40.345Z,16.59
2023-03-13T02:24:20.883Z,16.58
2023-03-13T02:27:22.730Z,16.57
2023-03-13T02:30:24.646Z,16.59
2023-03-13T02:33:32.449Z,16.61
2023-03-13T02:36:33.976Z,16.59
2023-03-13T02:39:36.426Z,16.60
2023-03-13T02:42:39.118Z,16.62
2023-03-13T02:45:40.636Z,16.61
2023-03-13T02:48:46.522Z,16.62
2023-03-13T02:51:48.506Z,16.62
2023-03-13T02:54:56.166Z,16.61
2023-03-13T02:57:57.613Z,16.61
2023-03-13T03:01:00.744Z,16.59
2023-03-13T03:04:02.401Z,16.59
2023-03-13T03:07:05.701Z,16.58
2023-03-13T03:10:08.586Z,16.58
2023-03-13T03:13:10.958Z,16.57
2023-03-13T03:16:15.386Z,16.57
2023-03-13T03:19:16.962Z,16.56
2023-03-13T03:22:18.657Z,16.56
2023-03-13T03:25:20.164Z,16.53
2023-03-13T03:28:22.436Z,16.54
2023-03-13T03:31:24.292Z,16.52
2023-03-13T03:34:25.951Z,16.53
2023-03-13T03:37:27.851Z,16.52
2023-03-13T03:40:30.279Z,16.53
2023-03-13T03:43:32.255Z,16.52
2023-03-13T03:46:34.659Z,16.52
2023-03-13T03:49:36.386Z,16.53
2023-03-13T03:52:38.873Z,16.53
2023-03-13T03:55:40.488Z,16.54
2023-03-13T03:58:42.193Z,16.55
2023-03-13T04:02:06.954Z,16.56
2023-03-13T04:05:09.289Z,16.56
2023-03-13T04:08:14.677Z,16.56
2023-03-13T04:11:16.674Z,16.56
2023-03-13T04:14:23.800Z,16.59
2023-03-13T04:17:26.068Z,16.60
2023-03-13T04:20:28.749Z,16.63
2023-03-13T04:23:30.520Z,16.63
2023-03-13T04:26:32.099Z,16.65
2023-03-13T04:29:34.946Z,16.66
2023-03-13T04:32:55.977Z,16.68
2023-03-13T04:35:57.557Z,16.69
2023-03-13T04:39:26.081Z,16.71
2023-03-13T04:42:41.929Z,16.74
2023-03-13T04:45:59.719Z,16.75
2023-03-13T04:49:19.818Z,16.77
2023-03-13T04:52:42.533Z,16.80
2023-03-13T04:56:00.071Z,16.80
2023-03-13T04:59:20.307Z,16.83
2023-03-13T05:02:44.660Z,16.85
2023-03-13T05:05:58.753Z,16.84
2023-03-13T05:09:20.517Z,16.86
2023-03-13T05:12:52.933Z,16.86
2023-03-13T05:16:20.912Z,16.85
2023-03-13T05:19:41.099Z,16.85
2023-03-13T05:22:56.495Z,16.86
2023-03-13T05:26:27.366Z,16.84
2023-03-13T05:29:40.821Z,16.84
2023-03-13T05:33:02.243Z,16.83
2023-03-13T05:36:29.780Z,16.83
2023-03-13T05:39:57.549Z,16.82
2023-03-13T05:43:19.286Z,16.80
2023-03-13T05:46:43.816Z,16.80
2023-03-13T05:50:04.861Z,16.79
2023-03-13T05:53:44.977Z,16.78
2023-03-13T05:57:22.106Z,16.76
2023-03-13T06:00:29.676Z,16.74
2023-03-13T06:03:57.637Z,16.76
2023-03-13T06:07:00.341Z,16.76
2023-03-13T06:10:03.986Z,16.79
2023-03-13T06:13:19.073Z,16.79
2023-03-13T06:16:23.033Z,16.81
2023-03-13T06:19:25.413Z,16.82
2023-03-13T06:22:27.030Z,16.83
2023-03-13T06:25:28.535Z,16.83
2023-03-13T06:28:30.081Z,16.84
2023-03-13T06:31:32.605Z,16.84
2023-03-13T06:34:34.336Z,16.86
2023-03-13T06:37:36.083Z,16.86
2023-03-13T06:40:37.762Z,16.87
2023-03-13T06:43:40.722Z,16.87
2023-03-13T06:46:42.273Z,16.87
2023-03-13T06:49:43.792Z,16.87
2023-03-13T06:52:47.071Z,16.88
2023-03-13T06:55:51.424Z,16.87
2023-03-13T06:58:52.948Z,16.87
2023-03-13T07:01:54.423Z,16.84
2023-03-13T07:04:55.933Z,16.84
2023-03-13T07:07:57.418Z,16.84
2023-03-13T07:11:01.109Z,16.83
2023-03-13T07:14:15.762Z,16.82
2023-03-13T07:17:18.854Z,16.83
2023-03-13T07:20:20.377Z,16.81
2023-03-13T07:23:25.337Z,16.81
2023-03-13T07:26:26.879Z,16.78
2023-03-13T07:29:28.573Z,16.78
2023-03-13T07:32:34.063Z,16.78
2023-03-13T07:35:35.579Z,16.76
2023-03-13T07:38:37.339Z,16.74
2023-03-13T07:41:40.064Z,16.73
2023-03-13T07:44:41.590Z,16.71
2023-03-13T07:47:43.034Z,16.69
2023-03-13T07:50:44.604Z,16.69
2023-03-13T07:53:49.701Z,16.69
2023-03-13T07:56:51.581Z,16.68
2023-03-13T07:59:53.062Z,16.67
2023-03-13T08:02:54.623Z,16.66
2023-03-13T08:06:05.814Z,16.67
2023-03-13T08:09:07.810Z,16.65
2023-03-13T08:12:10.196Z,16.65
2023-03-13T08:15:11.831Z,16.64
2023-03-13T08:18:13.317Z,16.63
2023-03-13T08:21:17.330Z,16.63
2023-03-13T08:24:18.804Z,16.62
2023-03-13T08:27:20.262Z,16.60
2023-03-13T08:30:21.777Z,16.60
2023-03-13T08:33:23.466Z,16.60
2023-03-13T08:36:31.274Z,16.60
2023-03-13T08:39:32.802Z,16.57
2023-03-13T08:42:34.239Z,16.57
2023-03-13T08:45:35.861Z,16.57
2023-03-13T08:48:37.352Z,16.56
2023-03-13T08:51:40.196Z,16.56
2023-03-13T08:54:41.728Z,16.54
2023-03-13T08:57:43.168Z,16.53
2023-03-13T09:00:44.634Z,16.52
2023-03-13T09:03:46.158Z,16.53
2023-03-13T09:06:47.650Z,16.50
2023-03-13T09:09:49.118Z,16.51
2023-03-13T09:12:50.586Z,16.51
2023-03-13T09:16:12.403Z,16.52
2023-03-13T09:19:14.351Z,16.48
2023-03-13T09:22:15.830Z,16.48
2023-03-13T09:25:17.399Z,16.48
2023-03-13T09:28:18.921Z,16.47
2023-03-13T09:31:23.265Z,16.47
2023-03-13T09:34:25.426Z,16.46
2023-03-13T09:37:26.946Z,16.44
2023-03-13T09:40:28.626Z,16.44
2023-03-13T09:43:44.948Z,16.44
2023-03-13T09:46:59.499Z,16.46
2023-03-13T09:50:16.883Z,16.44
2023-03-13T09:53:31.231Z,16.43
2023-03-13T09:56:50.502Z,16.42
2023-03-13T09:59:58.746Z,16.41
2023-03-13T10:03:26.074Z,16.41
2023-03-13T10:06:30.083Z,16.41
2023-03-13T10:09:33.674Z,16.39
2023-03-13T10:12:44.804Z,16.39
2023-03-13T10:15:52.110Z,16.38
2023-03-13T10:18:58.989Z,16.37
2023-03-13T10:22:03.869Z,16.37
2023-03-13T10:25:11.896Z,16.38
2023-03-13T10:28:22.544Z,16.38
2023-03-13T10:31:36.365Z,16.36
2023-03-13T10:34:53.691Z,16.37
2023-03-13T10:38:03.363Z,16.37
2023-03-13T10:41:23.273Z,16.37
2023-03-13T10:44:31.718Z,16.38
2023-03-13T10:47:35.148Z,16.39
2023-03-13T10:50:36.736Z,16.41
2023-03-13T10:53:38.258Z,16.43
2023-03-13T10:56:39.707Z,16.44
2023-03-13T10:59:45.826Z,16.48
2023-03-13T11:02:47.548Z,16.50
2023-03-13T11:06:00.834Z,16.53
2023-03-13T11:09:05.301Z,16.53
2023-03-13T11:12:17.480Z,16.56
2023-03-13T11:15:39.511Z,16.57
2023-03-13T11:19:12.723Z,16.59
2023-03-13T11:22:14.452Z,16.60
2023-03-13T11:25:22.192Z,16.63
2023-03-13T11:28:57.462Z,16.64
2023-03-13T11:32:03.150Z,16.64
2023-03-13T11:35:18.807Z,16.66
2023-03-13T11:38:28.044Z,16.67
2023-03-13T11:41:41.648Z,16.69
2023-03-13T11:44:43.124Z,16.68
2023-03-13T11:48:02.521Z,16.73
2023-03-13T11:51:26.267Z,16.74
2023-03-13T11:54:46.215Z,16.73
2023-03-13T11:58:20.241Z,16.77
2023-03-13T12:01:26.915Z,16.77
2023-03-13T12:04:36.857Z,16.78
2023-03-13T12:07:45.014Z,16.80
2023-03-13T12:11:06.474Z,16.81
2023-03-13T12:14:22.609Z,16.82
2023-03-13T12:17:30.113Z,16.81
2023-03-13T12:20:50.188Z,16.81
2023-03-13T12:24:12.707Z,16.80
2023-03-13T12:27:32.764Z,16.78
2023-03-13T12:30:42.044Z,16.78
2023-03-13T12:33:58.390Z,16.78
2023-03-13T12:37:21.250Z,16.77
2023-03-13T12:40:41.265Z,16.76
2023-03-13T12:43:49.728Z,16.76
2023-03-13T12:47:08.428Z,16.74
2023-03-13T12:50:45.384Z,16.75
2023-03-13T12:54:17.948Z,16.74
2023-03-13T12:57:43.628Z,16.73
2023-03-13T13:00:47.722Z,16.70
2023-03-13T13:03:56.749Z,16.71
2023-03-13T13:07:18.263Z,16.70
2023-03-13T13:10:25.140Z,16.68
2023-03-13T13:13:32.927Z,16.68
2023-03-13T13:16:34.592Z,16.67
2023-03-13T13:19:41.911Z,16.66
2023-03-13T13:22:47.466Z,16.66
2023-03-13T13:25:50.033Z,16.64
2023-03-13T13:28:51.555Z,16.64
2023-03-13T13:32:01.280Z,16.64
2023-03-13T13:35:10.210Z,16.66
2023-03-13T13:38:18.008Z,16.65
2023-03-13T13:41:19.629Z,16.62
2023-03-13T13:44:26.895Z,16.63
2023-03-13T13:47:32.504Z,16.62
2023-03-13T13:50:34.883Z,16.62
2023-03-13T13:53:45.271Z,16.62
2023-03-13T13:56:49.808Z,16.61
2023-03-13T14:00:16.311Z,16.62
2023-03-13T14:03:28.989Z,16.62
2023-03-13T14:06:35.649Z,16.60
2023-03-13T14:09:40.137Z,16.63
2023-03-13T14:12:47.670Z,16.63
2023-03-13T14:15:52.858Z,16.63
2023-03-13T14:18:55.454Z,16.63
2023-03-13T14:22:08.874Z,16.64
2023-03-13T14:25:10.433Z,16.64
2023-03-13T14:28:23.703Z,16.64
2023-03-13T14:31:29.865Z,16.64
2023-03-13T14:34:32.813Z,16.62
2023-03-13T14:37:46.199Z,16.63
2023-03-13T14:40:49.218Z,16.62
2023-03-13T14:43:50.724Z,16.62
2023-03-13T14:47:00.755Z,16.63
2023-03-13T14:50:12.038Z,16.63
2023-03-13T14:53:19.628Z,16.63
2023-03-13T14:56:21.291Z,16.62
2023-03-13T14:59:28.737Z,16.63
2023-03-13T15:02:32.290Z,16.61
2023-03-13T15:05:34.060Z,16.60
2023-03-13T15:08:37.914Z,16.60
2023-03-13T15:11:54.754Z,16.60
2023-03-13T15:14:56.361Z,16.59
2023-03-13T15:17:57.910Z,16.56
2023-03-13T15:21:14.624Z,16.57
2023-03-13T15:24:16.197Z,16.55
2023-03-13T15:27:20.480Z,16.55
2023-03-13T15:30:23.638Z,16.53
2023-03-13T15:33:28.697Z,16.53
2023-03-13T15:36:31.874Z,16.53
2023-03-13T15:39:33.410Z,16.52
2023-03-13T15:42:34.876Z,16.52
2023-03-13T15:45:37.980Z,16.51
2023-03-13T15:48:41.341Z,16.51
2023-03-13T15:51:42.825Z,16.51
2023-03-13T15:54:48.266Z,16.56
2023-03-13T15:57:50.703Z,16.57
2023-03-13T16:00:52.408Z,16.61
2023-03-13T16:03:54.084Z,16.62
2023-03-13T16:06:55.562Z,16.64
2023-03-13T16:09:57.083Z,16.65
2023-03-13T16:12:58.614Z,16.66
2023-03-13T16:16:00.250Z,16.66
2023-03-13T16:19:04.205Z,16.67
2023-03-13T16:22:05.726Z,16.66
2023-03-13T16:25:08.781Z,16.67
2023-03-13T16:28:14.697Z,16.68
2023-03-13T16:31:24.852Z,16.70
2023-03-13T16:34:26.330Z,16.69
2023-03-13T16:37:27.801Z,16.70
2023-03-13T16:40:33.778Z,16.71
2023-03-13T16:43:35.291Z,16.71
2023-03-13T16:46:40.249Z,16.71
2023-03-13T16:49:41.733Z,16.70
2023-03-13T16:52:43.271Z,16.70
2023-03-13T16:55:44.783Z,16.72
2023-03-13T16:58:47.069Z,16.76
2023-03-13T17:01:48.936Z,16.77
2023-03-13T17:04:50.512Z,16.77
2023-03-13T17:07:52.121Z,16.79
2023-03-13T17:10:54.058Z,16.79
2023-03-13T17:13:55.902Z,16.81
2023-03-13T17:16:57.473Z,16.83
2023-03-13T17:19:58.961Z,16.83
2023-03-13T17:23:01.080Z,16.84
2023-03-13T17:26:03.187Z,16.86
2023-03-13T17:29:07.172Z,16.87
2023-03-13T17:32:11.508Z,16.88
2023-03-13T17:35:13.429Z,16.87
2023-03-13T17:38:14.928Z,16.88
2023-03-13T17:41:19.859Z,16.90
2023-03-13T17:44:21.332Z,16.88
2023-03-13T17:47:24.124Z,16.91
2023-03-13T17:50:27.479Z,16.91
2023-03-13T17:53:28.975Z,16.90
2023-03-13T17:56:38.653Z,16.93
2023-03-13T17:59:40.366Z,16.93
2023-03-13T18:02:41.898Z,16.92
2023-03-13T18:05:43.697Z,16.94
2023-03-13T18:08:45.494Z,16.94
2023-03-13T18:11:48.268Z,16.95
2023-03-13T18:14:49.919Z,16.95
2023-03-13T18:17:52.313Z,16.95
2023-03-13T18:20:54.651Z,16.96
2023-03-13T18:23:57.026Z,16.98
2023-03-13T18:26:58.506Z,16.99
2023-03-13T18:29:59.974Z,16.98
2023-03-13T18:33:01.589Z,16.99
2023-03-13T18:36:03.393Z,16.99
2023-03-13T18:39:08.691Z,17.01
2023-03-13T18:42:10.529Z,17.00
2023-03-13T18:45:17.576Z,17.02
2023-03-13T18:48:19.059Z,17.02
2023-03-13T18:51:24.690Z,17.05
2023-03-13T18:54:26.245Z,17.05
2023-03-13T18:57:27.683Z,17.05
2023-03-13T19:00:30.866Z,17.06
2023-03-13T19:03:32.450Z,17.06
2023-03-13T19:06:36.675Z,17.09
2023-03-13T19:09:43.500Z,17.09
2023-03-13T19:12:46.348Z,17.11
2023-03-13T19:15:47.844Z,17.11
2023-03-13T19:18:50.088Z,17.12
2023-03-13T19:21:55.965Z,17.12
2023-03-13T19:24:57.524Z,17.12
2023-03-13T19:27:59.110Z,17.12
2023-03-13T19:31:00.571Z,17.11
2023-03-13T19:34:02.018Z,17.12
2023-03-13T19:37:03.478Z,17.12
2023-03-13T19:40:25.696Z,17.14
2023-03-13T19:43:27.177Z,17.13
2023-03-13T19:46:29.664Z,17.13
2023-03-13T19:49:31.460Z,17.13
2023-03-13T19:52:32.939Z,17.13
2023-03-13T19:55:34.420Z,17.14
2023-03-13T19:58:36.932Z,17.14
2023-03-13T20:01:38.506Z,17.14
2023-03-13T20:04:42.059Z,17.15
2023-03-13T20:07:43.591Z,17.14
2023-03-13T20:10:45.056Z,17.13
2023-03-13T20:13:46.531Z,17.12
2023-03-13T20:16:48.941Z,17.14
2023-03-13T20:19:50.731Z,17.13
2023-03-13T20:22:54.033Z,17.13
2023-03-13T20:25:55.572Z,17.13
2023-03-13T20:28:57.313Z,17.13
2023-03-13T20:32:04.462Z,17.13
2023-03-13T20:35:10.473Z,17.12
2023-03-13T20:38:12.058Z,17.13
2023-03-13T20:41:14.219Z,17.13
2023-03-13T20:44:15.720Z,17.11
2023-03-13T20:47:17.398Z,17.11
2023-03-13T20:50:19.782Z,17.12
2023-03-13T20:53:22.576Z,17.12
2023-03-13T20:56:24.066Z,17.12
2023-03-13T20:59:25.691Z,17.12
2023-03-13T21:02:27.158Z,17.11
2023-03-13T21:05:28.646Z,17.12
2023-03-13T21:08:30.113Z,17.11
2023-03-13T21:11:33.509Z,17.11
2023-03-13T21:14:36.288Z,17.11
2023-03-13T21:17:38.343Z,17.12
2023-03-13T21:20:39.869Z,17.11
2023-03-13T21:23:41.365Z,17.11
2023-03-13T21:26:42.908Z,17.12
2023-03-13T21:29:47.051Z,17.11
2023-03-13T21:32:49.120Z,17.12
2023-03-13T21:35:50.720Z,17.12
2023-03-13T21:38:52.315Z,17.12
2023-03-13T21:41:53.836Z,17.11
2023-03-13T21:44:55.303Z,17.12
2023-03-13T21:47:56.954Z,17.11
2023-03-13T21:50:58.497Z,17.11
2023-03-13T21:53:59.960Z,17.10
2023-03-13T21:57:01.421Z,17.12
2023-03-13T22:00:07.857Z,17.13
2023-03-13T22:03:09.421Z,17.11
2023-03-13T22:06:15.868Z,17.13
2023-03-13T22:09:17.274Z,17.11
2023-03-13T22:12:18.805Z,17.10
2023-03-13T22:15:20.267Z,17.11
2023-03-13T22:18:21.842Z,17.10
2023-03-13T22:21:23.477Z,17.09
2023-03-13T22:24:25.145Z,17.08
2023-03-13T22:27:26.649Z,17.08
2023-03-13T22:30:28.183Z,17.08
2023-03-13T22:33:29.789Z,17.08
2023-03-13T22:36:31.288Z,17.07
2023-03-13T22:39:32.783Z,17.07
2023-03-13T22:42:34.284Z,17.05
2023-03-13T22:45:36.319Z,17.04
2023-03-13T22:48:38.791Z,17.04
2023-03-13T22:51:40.247Z,17.03
2023-03-13T22:54:41.741Z,17.01
2023-03-13T22:57:43.281Z,17.02
2023-03-13T23:00:44.927Z,17.00
2023-03-13T23:03:46.824Z,17.00
2023-03-13T23:06:48.273Z,16.99
2023-03-13T23:09:49.887Z,16.97
2023-03-13T23:12:51.415Z,16.98
2023-03-13T23:15:56.409Z,16.97
2023-03-13T23:18:58.107Z,16.97
2023-03-13T23:21:59.597Z,16.95
2023-03-13T23:25:01.325Z,16.97
2023-03-13T23:28:02.788Z,16.94
2023-03-13T23:31:11.813Z,16.97
2023-03-13T23:34:13.633Z,16.94
2023-03-13T23:37:15.108Z,16.94
2023-03-13T23:40:16.755Z,16.93
2023-03-13T23:43:18.219Z,16.92
2023-03-13T23:46:26.849Z,16.94
2023-03-13T23:49:28.366Z,16.92
2023-03-13T23:52:30.315Z,16.90
2023-03-13T23:55:32.064Z,16.88
2023-03-13T23:58:34.356Z,16.87
